Terminal Aerodrome Forecast
Issued by NWS Detroit/Pontiac, MI

Home | Current Version | Previous Version | Text Only | Print | Product List | Glossary On
Versions: 1 2 3 4 5 6 7 8 9 10 11 12 13 14 15 16 17 18 19 20 21 22 23 24 25 26
099
FTUS43 KDTX 131120
TAFDTW
TAF
KDTW 131120Z 1312/1418 31010KT P6SM SCT040
     FM131600 30012G20KT P6SM BKN040
     FM140000 30009KT P6SM SCT045
     FM140600 27003KT P6SM SKC
     FM141600 16005KT P6SM BKN035=

USA.gov is the U.S. government's official web portal to all federal, state and local government web resources and services.